Antler, North Dakota
Current Conditions -  °F | °C
As of 3:58 PM on Tuesday 21 Oct 2014 (Local Time) from KMIB Reporting Station
Clear Clear  
Wind Chill: 71°   Ceiling: Unl
Heat Index: 71°   Visibility: 10mi
Dew Point: 44°   Wind: 16mph
Humidity: 38%   Direction: 150°SSE
Pressure: 29.64"   Gusts: NA
Location:  48.97°N, 101.28°W
Report Text: KMIB 212058Z AUTO 15014KT 10SM CLR 21/06 A2964 RMK AO2 SLP044 T02140064 57023 CHINO RWY29 $
Loading
Personal Weather Stations






























Interactive Weather Map
Tropical Storm Tracking
New forecast layout! Learn more

10-Day Weather Forecast

Advertisements
Track Severe Weather on mobile